sensor_id;sensor_type;location;lat;lon;timestamp;P1;durP1;ratioP1;P2;durP2;ratioP2
20784;SDS011;10552;45.818;12.896;2022-08-18T00:01:13;8.90;;;7.37;;
20784;SDS011;10552;45.818;12.896;2022-08-18T00:03:55;9.82;;;8.63;;
20784;SDS011;10552;45.818;12.896;2022-08-18T00:06:38;9.63;;;8.65;;
20784;SDS011;10552;45.818;12.896;2022-08-18T00:09:28;9.60;;;8.63;;
20784;SDS011;10552;45.818;12.896;2022-08-18T00:12:14;9.98;;;8.80;;
20784;SDS011;10552;45.818;12.896;2022-08-18T00:25:34;9.98;;;8.15;;
20784;SDS011;10552;45.818;12.896;2022-08-18T00:28:18;13.18;;;7.87;;
20784;SDS011;10552;45.818;12.896;2022-08-18T00:31:03;10.70;;;8.45;;
20784;SDS011;10552;45.818;12.896;2022-08-18T00:33:49;13.27;;;8.93;;
20784;SDS011;10552;45.818;12.896;2022-08-18T00:36:40;11.30;;;9.10;;
20784;SDS011;10552;45.818;12.896;2022-08-18T00:39:30;10.30;;;9.20;;
20784;SDS011;10552;45.818;12.896;2022-08-18T00:42:19;9.45;;;8.40;;
20784;SDS011;10552;45.818;12.896;2022-08-18T00:45:01;9.18;;;7.82;;
20784;SDS011;10552;45.818;12.896;2022-08-18T00:47:45;11.77;;;8.85;;
20784;SDS011;10552;45.818;12.896;2022-08-18T00:50:34;9.98;;;8.95;;
20784;SDS011;10552;45.818;12.896;2022-08-18T00:53:20;9.50;;;8.48;;
20784;SDS011;10552;45.818;12.896;2022-08-18T00:56:04;12.02;;;8.45;;
20784;SDS011;10552;45.818;12.896;2022-08-18T00:58:48;12.90;;;8.95;;
20784;SDS011;10552;45.818;12.896;2022-08-18T01:01:35;10.23;;;9.05;;
20784;SDS011;10552;45.818;12.896;2022-08-18T01:04:25;11.43;;;9.15;;
20784;SDS011;10552;45.818;12.896;2022-08-18T01:07:17;8.68;;;7.82;;
20784;SDS011;10552;45.818;12.896;2022-08-18T01:10:06;9.77;;;8.77;;
20784;SDS011;10552;45.818;12.896;2022-08-18T01:12:53;10.07;;;9.07;;
20784;SDS011;10552;45.818;12.896;2022-08-18T01:15:49;7.70;;;6.95;;
20784;SDS011;10552;45.818;12.896;2022-08-18T01:18:33;10.88;;;8.27;;
20784;SDS011;10552;45.818;12.896;2022-08-18T01:21:23;9.85;;;8.85;;
20784;SDS011;10552;45.818;12.896;2022-08-18T01:24:11;9.40;;;8.50;;
20784;SDS011;10552;45.818;12.896;2022-08-18T01:26:55;10.13;;;8.95;;
20784;SDS011;10552;45.818;12.896;2022-08-18T01:29:39;12.40;;;9.38;;
20784;SDS011;10552;45.818;12.896;2022-08-18T01:32:23;11.32;;;8.88;;
20784;SDS011;10552;45.818;12.896;2022-08-18T01:35:07;10.30;;;8.20;;
20784;SDS011;10552;45.818;12.896;2022-08-18T01:37:51;10.18;;;8.13;;
20784;SDS011;10552;45.818;12.896;2022-08-18T01:40:34;11.07;;;8.35;;
20784;SDS011;10552;45.818;12.896;2022-08-18T01:43:18;11.07;;;8.40;;
20784;SDS011;10552;45.818;12.896;2022-08-18T01:46:02;11.77;;;8.18;;
20784;SDS011;10552;45.818;12.896;2022-08-18T01:48:46;10.32;;;8.82;;
20784;SDS011;10552;45.818;12.896;2022-08-18T01:51:30;12.27;;;8.57;;
20784;SDS011;10552;45.818;12.896;2022-08-18T01:54:13;10.18;;;8.63;;
20784;SDS011;10552;45.818;12.896;2022-08-18T01:56:56;9.80;;;8.55;;
20784;SDS011;10552;45.818;12.896;2022-08-18T01:59:40;9.85;;;8.85;;
20784;SDS011;10552;45.818;12.896;2022-08-18T02:02:24;10.02;;;8.98;;
20784;SDS011;10552;45.818;12.896;2022-08-18T02:05:26;13.68;;;8.32;;
20784;SDS011;10552;45.818;12.896;2022-08-18T02:08:11;11.32;;;9.13;;
20784;SDS011;10552;45.818;12.896;2022-08-18T02:10:54;10.50;;;9.38;;
20784;SDS011;10552;45.818;12.896;2022-08-18T02:13:38;12.73;;;9.25;;
20784;SDS011;10552;45.818;12.896;2022-08-18T02:16:25;12.05;;;9.18;;
20784;SDS011;10552;45.818;12.896;2022-08-18T02:19:17;9.88;;;8.60;;
20784;SDS011;10552;45.818;12.896;2022-08-18T02:22:02;11.55;;;9.48;;
20784;SDS011;10552;45.818;12.896;2022-08-18T02:24:47;14.02;;;10.20;;
20784;SDS011;10552;45.818;12.896;2022-08-18T02:27:31;11.77;;;9.95;;
20784;SDS011;10552;45.818;12.896;2022-08-18T02:30:15;11.25;;;10.05;;
20784;SDS011;10552;45.818;12.896;2022-08-18T02:32:58;11.82;;;10.55;;
20784;SDS011;10552;45.818;12.896;2022-08-18T02:35:41;13.02;;;10.15;;
20784;SDS011;10552;45.818;12.896;2022-08-18T02:38:25;11.18;;;10.02;;
20784;SDS011;10552;45.818;12.896;2022-08-18T02:41:15;12.80;;;10.77;;
20784;SDS011;10552;45.818;12.896;2022-08-18T02:43:58;11.30;;;10.10;;
20784;SDS011;10552;45.818;12.896;2022-08-18T02:46:42;12.00;;;10.30;;
20784;SDS011;10552;45.818;12.896;2022-08-18T02:49:26;12.35;;;10.77;;
20784;SDS011;10552;45.818;12.896;2022-08-18T02:52:09;12.55;;;10.20;;
20784;SDS011;10552;45.818;12.896;2022-08-18T02:54:52;11.12;;;9.75;;
20784;SDS011;10552;45.818;12.896;2022-08-18T02:57:35;11.77;;;10.02;;
20784;SDS011;10552;45.818;12.896;2022-08-18T03:00:27;10.32;;;8.65;;
20784;SDS011;10552;45.818;12.896;2022-08-18T03:03:16;11.73;;;10.20;;
20784;SDS011;10552;45.818;12.896;2022-08-18T03:06:00;11.75;;;9.90;;
20784;SDS011;10552;45.818;12.896;2022-08-18T03:08:43;12.02;;;10.55;;
20784;SDS011;10552;45.818;12.896;2022-08-18T03:11:27;13.02;;;9.93;;
20784;SDS011;10552;45.818;12.896;2022-08-18T03:14:19;11.00;;;8.88;;
20784;SDS011;10552;45.818;12.896;2022-08-18T03:17:08;11.63;;;9.77;;
20784;SDS011;10552;45.818;12.896;2022-08-18T03:19:52;13.68;;;10.02;;
20784;SDS011;10552;45.818;12.896;2022-08-18T03:22:36;12.45;;;10.30;;
20784;SDS011;10552;45.818;12.896;2022-08-18T03:25:20;13.73;;;9.90;;
20784;SDS011;10552;45.818;12.896;2022-08-18T03:28:04;11.48;;;10.05;;
20784;SDS011;10552;45.818;12.896;2022-08-18T03:30:49;10.82;;;9.70;;
20784;SDS011;10552;45.818;12.896;2022-08-18T03:33:35;11.25;;;9.18;;
20784;SDS011;10552;45.818;12.896;2022-08-18T03:36:20;13.50;;;9.45;;
20784;SDS011;10552;45.818;12.896;2022-08-18T03:39:10;8.65;;;6.70;;
20784;SDS011;10552;45.818;12.896;2022-08-18T03:41:53;9.88;;;8.82;;
20784;SDS011;10552;45.818;12.896;2022-08-18T03:44:42;10.38;;;8.77;;
20784;SDS011;10552;45.818;12.896;2022-08-18T03:47:30;10.98;;;8.32;;
20784;SDS011;10552;45.818;12.896;2022-08-18T03:50:31;8.43;;;7.05;;
20784;SDS011;10552;45.818;12.896;2022-08-18T03:53:20;10.05;;;8.40;;
20784;SDS011;10552;45.818;12.896;2022-08-18T03:56:07;10.07;;;7.68;;
20784;SDS011;10552;45.818;12.896;2022-08-18T03:59:00;11.98;;;6.75;;
20784;SDS011;10552;45.818;12.896;2022-08-18T04:01:43;9.05;;;7.70;;
20784;SDS011;10552;45.818;12.896;2022-08-18T04:04:26;8.85;;;7.80;;
20784;SDS011;10552;45.818;12.896;2022-08-18T04:07:10;8.73;;;7.40;;
20784;SDS011;10552;45.818;12.896;2022-08-18T04:09:53;9.00;;;7.72;;
20784;SDS011;10552;45.818;12.896;2022-08-18T04:12:55;12.05;;;6.12;;
20784;SDS011;10552;45.818;12.896;2022-08-18T04:15:49;7.80;;;6.62;;
20784;SDS011;10552;45.818;12.896;2022-08-18T04:18:33;9.63;;;8.13;;
20784;SDS011;10552;45.818;12.896;2022-08-18T04:21:31;8.93;;;7.53;;
20784;SDS011;10552;45.818;12.896;2022-08-18T04:24:36;7.20;;;6.50;;
20784;SDS011;10552;45.818;12.896;2022-08-18T04:27:35;9.73;;;7.93;;
20784;SDS011;10552;45.818;12.896;2022-08-18T04:30:32;8.30;;;7.40;;
20784;SDS011;10552;45.818;12.896;2022-08-18T04:33:29;9.57;;;8.00;;
20784;SDS011;10552;45.818;12.896;2022-08-18T04:36:18;8.10;;;7.28;;
20784;SDS011;10552;45.818;12.896;2022-08-18T04:39:10;6.75;;;6.15;;
20784;SDS011;10552;45.818;12.896;2022-08-18T04:41:53;8.40;;;7.50;;
20784;SDS011;10552;45.818;12.896;2022-08-18T04:44:36;12.85;;;7.82;;
20784;SDS011;10552;45.818;12.896;2022-08-18T04:47:19;9.25;;;7.47;;
20784;SDS011;10552;45.818;12.896;2022-08-18T04:50:03;9.27;;;7.68;;
20784;SDS011;10552;45.818;12.896;2022-08-18T04:52:47;9.75;;;7.53;;
20784;SDS011;10552;45.818;12.896;2022-08-18T04:55:46;7.28;;;6.50;;
20784;SDS011;10552;45.818;12.896;2022-08-18T04:58:28;8.57;;;7.72;;
20784;SDS011;10552;45.818;12.896;2022-08-18T05:01:19;9.50;;;8.00;;
20784;SDS011;10552;45.818;12.896;2022-08-18T05:04:01;9.55;;;8.35;;
20784;SDS011;10552;45.818;12.896;2022-08-18T05:06:59;11.25;;;7.00;;
20784;SDS011;10552;45.818;12.896;2022-08-18T05:09:49;11.43;;;8.27;;
20784;SDS011;10552;45.818;12.896;2022-08-18T05:12:32;9.25;;;8.07;;
20784;SDS011;10552;45.818;12.896;2022-08-18T05:15:21;10.65;;;8.07;;
20784;SDS011;10552;45.818;12.896;2022-08-18T05:18:05;8.88;;;7.97;;
20784;SDS011;10552;45.818;12.896;2022-08-18T05:20:54;13.02;;;8.90;;
20784;SDS011;10552;45.818;12.896;2022-08-18T05:23:44;11.45;;;8.30;;
20784;SDS011;10552;45.818;12.896;2022-08-18T05:26:26;11.48;;;8.65;;
20784;SDS011;10552;45.818;12.896;2022-08-18T05:29:10;11.68;;;9.18;;
20784;SDS011;10552;45.818;12.896;2022-08-18T05:31:54;14.02;;;9.80;;
20784;SDS011;10552;45.818;12.896;2022-08-18T05:34:38;12.57;;;9.25;;
20784;SDS011;10552;45.818;12.896;2022-08-18T05:37:26;11.75;;;9.52;;
20784;SDS011;10552;45.818;12.896;2022-08-18T05:40:05;11.82;;;10.00;;
20784;SDS011;10552;45.818;12.896;2022-08-18T05:42:56;10.75;;;9.50;;
20784;SDS011;10552;45.818;12.896;2022-08-18T05:45:40;13.40;;;10.25;;
20784;SDS011;10552;45.818;12.896;2022-08-18T05:48:23;12.57;;;9.90;;
20784;SDS011;10552;45.818;12.896;2022-08-18T05:51:11;13.93;;;10.25;;
20784;SDS011;10552;45.818;12.896;2022-08-18T05:53:53;11.15;;;9.75;;
20784;SDS011;10552;45.818;12.896;2022-08-18T05:56:50;9.85;;;8.50;;
20784;SDS011;10552;45.818;12.896;2022-08-18T05:59:34;12.07;;;10.27;;
20784;SDS011;10552;45.818;12.896;2022-08-18T06:02:30;10.55;;;9.45;;
20784;SDS011;10552;45.818;12.896;2022-08-18T06:08:00;10.80;;;9.70;;
20784;SDS011;10552;45.818;12.896;2022-08-18T06:10:45;11.20;;;9.43;;
20784;SDS011;10552;45.818;12.896;2022-08-18T06:13:26;10.25;;;9.25;;
20784;SDS011;10552;45.818;12.896;2022-08-18T06:16:18;9.93;;;8.93;;
20784;SDS011;10552;45.818;12.896;2022-08-18T06:19:02;10.38;;;9.27;;
20784;SDS011;10552;45.818;12.896;2022-08-18T06:25:06;9.48;;;8.48;;
20784;SDS011;10552;45.818;12.896;2022-08-18T06:27:54;9.63;;;8.52;;
20784;SDS011;10552;45.818;12.896;2022-08-18T06:30:58;8.55;;;7.37;;
20784;SDS011;10552;45.818;12.896;2022-08-18T06:33:56;10.32;;;8.55;;
20784;SDS011;10552;45.818;12.896;2022-08-18T06:36:38;8.73;;;7.93;;
20784;SDS011;10552;45.818;12.896;2022-08-18T06:39:35;7.32;;;6.57;;
20784;SDS011;10552;45.818;12.896;2022-08-18T06:42:32;7.45;;;6.75;;
20784;SDS011;10552;45.818;12.896;2022-08-18T06:45:16;10.05;;;8.68;;
20784;SDS011;10552;45.818;12.896;2022-08-18T06:48:04;9.60;;;8.60;;
20784;SDS011;10552;45.818;12.896;2022-08-18T06:50:49;9.98;;;8.70;;
20784;SDS011;10552;45.818;12.896;2022-08-18T06:56:22;9.32;;;7.55;;
20784;SDS011;10552;45.818;12.896;2022-08-18T07:02:01;9.65;;;8.02;;
20784;SDS011;10552;45.818;12.896;2022-08-18T07:07:35;7.87;;;7.10;;
20784;SDS011;10552;45.818;12.896;2022-08-18T07:13:20;7.93;;;7.15;;
20784;SDS011;10552;45.818;12.896;2022-08-18T07:18:50;7.70;;;7.00;;
20784;SDS011;10552;45.818;12.896;2022-08-18T07:21:35;7.00;;;6.35;;
20784;SDS011;10552;45.818;12.896;2022-08-18T07:24:20;8.00;;;7.15;;
20784;SDS011;10552;45.818;12.896;2022-08-18T07:27:04;11.60;;;7.72;;
20784;SDS011;10552;45.818;12.896;2022-08-18T07:35:41;7.57;;;6.75;;
20784;SDS011;10552;45.818;12.896;2022-08-18T07:38:39;6.50;;;5.90;;
20784;SDS011;10552;45.818;12.896;2022-08-18T07:41:25;7.20;;;6.50;;
20784;SDS011;10552;45.818;12.896;2022-08-18T07:46:58;5.72;;;5.20;;
20784;SDS011;10552;45.818;12.896;2022-08-18T07:49:41;6.10;;;4.82;;
20784;SDS011;10552;45.818;12.896;2022-08-18T07:52:27;6.60;;;5.20;;
20784;SDS011;10552;45.818;12.896;2022-08-18T07:55:11;5.65;;;4.97;;
20784;SDS011;10552;45.818;12.896;2022-08-18T07:57:55;6.62;;;4.80;;
20784;SDS011;10552;45.818;12.896;2022-08-18T08:00:39;5.22;;;4.80;;
20784;SDS011;10552;45.818;12.896;2022-08-18T08:03:41;6.12;;;5.30;;
20784;SDS011;10552;45.818;12.896;2022-08-18T08:06:27;6.32;;;4.78;;
20784;SDS011;10552;45.818;12.896;2022-08-18T08:09:22;4.70;;;4.25;;
20784;SDS011;10552;45.818;12.896;2022-08-18T08:12:06;6.40;;;4.57;;
20784;SDS011;10552;45.818;12.896;2022-08-18T08:14:47;5.30;;;4.80;;
20784;SDS011;10552;45.818;12.896;2022-08-18T08:17:33;5.57;;;5.07;;
20784;SDS011;10552;45.818;12.896;2022-08-18T08:20:25;5.50;;;5.00;;
20784;SDS011;10552;45.818;12.896;2022-08-18T08:23:08;4.95;;;4.47;;
20784;SDS011;10552;45.818;12.896;2022-08-18T08:25:58;6.25;;;4.47;;
20784;SDS011;10552;45.818;12.896;2022-08-18T08:28:41;5.72;;;4.07;;
20784;SDS011;10552;45.818;12.896;2022-08-18T08:31:48;4.55;;;3.95;;
20784;SDS011;10552;45.818;12.896;2022-08-18T08:34:32;5.18;;;3.80;;
20784;SDS011;10552;45.818;12.896;2022-08-18T08:37:16;4.20;;;3.80;;
20784;SDS011;10552;45.818;12.896;2022-08-18T08:39:59;4.25;;;3.85;;
20784;SDS011;10552;45.818;12.896;2022-08-18T08:42:50;8.68;;;4.18;;
20784;SDS011;10552;45.818;12.896;2022-08-18T08:45:37;11.55;;;4.60;;
20784;SDS011;10552;45.818;12.896;2022-08-18T08:48:22;4.55;;;4.15;;
20784;SDS011;10552;45.818;12.896;2022-08-18T08:54:05;4.93;;;4.43;;
20784;SDS011;10552;45.818;12.896;2022-08-18T08:56:50;6.40;;;4.37;;
20784;SDS011;10552;45.818;12.896;2022-08-18T08:59:41;5.75;;;3.80;;
20784;SDS011;10552;45.818;12.896;2022-08-18T09:02:29;4.40;;;4.00;;
20784;SDS011;10552;45.818;12.896;2022-08-18T09:05:13;4.53;;;3.85;;
20784;SDS011;10552;45.818;12.896;2022-08-18T09:08:08;4.30;;;3.90;;
20784;SDS011;10552;45.818;12.896;2022-08-18T09:16:59;4.45;;;4.05;;
20784;SDS011;10552;45.818;12.896;2022-08-18T09:19:41;6.72;;;4.47;;
20784;SDS011;10552;45.818;12.896;2022-08-18T09:22:33;5.75;;;4.20;;
20784;SDS011;10552;45.818;12.896;2022-08-18T09:25:30;4.78;;;3.65;;
20784;SDS011;10552;45.818;12.896;2022-08-18T09:28:17;5.30;;;3.97;;
20784;SDS011;10552;45.818;12.896;2022-08-18T09:31:16;4.53;;;3.83;;
20784;SDS011;10552;45.818;12.896;2022-08-18T09:34:16;6.65;;;3.95;;
20784;SDS011;10552;45.818;12.896;2022-08-18T09:36:59;7.60;;;4.05;;
20784;SDS011;10552;45.818;12.896;2022-08-18T09:39:41;7.47;;;3.70;;
20784;SDS011;10552;45.818;12.896;2022-08-18T09:42:33;5.28;;;3.42;;
20784;SDS011;10552;45.818;12.896;2022-08-18T09:48:21;6.28;;;3.87;;
20784;SDS011;10552;45.818;12.896;2022-08-18T09:54:09;3.90;;;3.37;;
20784;SDS011;10552;45.818;12.896;2022-08-18T09:57:05;3.50;;;3.20;;
20784;SDS011;10552;45.818;12.896;2022-08-18T09:59:51;4.82;;;3.65;;
20784;SDS011;10552;45.818;12.896;2022-08-18T10:05:34;4.60;;;3.15;;
20784;SDS011;10552;45.818;12.896;2022-08-18T10:08:26;4.28;;;3.20;;
20784;SDS011;10552;45.818;12.896;2022-08-18T10:11:15;3.45;;;3.10;;
20784;SDS011;10552;45.818;12.896;2022-08-18T10:13:57;4.95;;;3.15;;
20784;SDS011;10552;45.818;12.896;2022-08-18T10:16:47;4.80;;;3.10;;
20784;SDS011;10552;45.818;12.896;2022-08-18T10:19:30;3.22;;;2.92;;
20784;SDS011;10552;45.818;12.896;2022-08-18T10:22:10;4.75;;;3.03;;
20784;SDS011;10552;45.818;12.896;2022-08-18T10:24:54;3.28;;;3.00;;
20784;SDS011;10552;45.818;12.896;2022-08-18T10:27:52;3.55;;;2.97;;
20784;SDS011;10552;45.818;12.896;2022-08-18T10:34:00;3.40;;;3.00;;
20784;SDS011;10552;45.818;12.896;2022-08-18T10:36:44;3.97;;;3.10;;
20784;SDS011;10552;45.818;12.896;2022-08-18T10:39:45;4.80;;;3.30;;
20784;SDS011;10552;45.818;12.896;2022-08-18T10:42:32;4.87;;;2.90;;
20784;SDS011;10552;45.818;12.896;2022-08-18T10:45:31;5.15;;;3.00;;
20784;SDS011;10552;45.818;12.896;2022-08-18T10:48:17;5.10;;;3.45;;
20784;SDS011;10552;45.818;12.896;2022-08-18T10:51:02;5.15;;;3.22;;
20784;SDS011;10552;45.818;12.896;2022-08-18T10:53:50;4.03;;;3.42;;
20784;SDS011;10552;45.818;12.896;2022-08-18T10:56:41;3.60;;;3.20;;
20784;SDS011;10552;45.818;12.896;2022-08-18T10:59:29;4.28;;;3.30;;
20784;SDS011;10552;45.818;12.896;2022-08-18T11:02:17;5.15;;;3.40;;
20784;SDS011;10552;45.818;12.896;2022-08-18T11:04:57;3.70;;;3.35;;
20784;SDS011;10552;45.818;12.896;2022-08-18T11:10:35;4.37;;;3.40;;
20784;SDS011;10552;45.818;12.896;2022-08-18T11:13:23;4.57;;;3.50;;
20784;SDS011;10552;45.818;12.896;2022-08-18T11:16:10;4.97;;;3.10;;
20784;SDS011;10552;45.818;12.896;2022-08-18T11:18:50;3.17;;;2.72;;
20784;SDS011;10552;45.818;12.896;2022-08-18T11:32:15;5.82;;;2.20;;
20784;SDS011;10552;45.818;12.896;2022-08-18T11:35:06;8.05;;;1.90;;
20784;SDS011;10552;45.818;12.896;2022-08-18T11:37:58;3.78;;;1.75;;
20784;SDS011;10552;45.818;12.896;2022-08-18T11:40:45;2.47;;;1.70;;
20784;SDS011;10552;45.818;12.896;2022-08-18T11:43:33;4.20;;;1.98;;
20784;SDS011;10552;45.818;12.896;2022-08-18T11:46:25;2.80;;;1.60;;
20784;SDS011;10552;45.818;12.896;2022-08-18T11:49:14;2.15;;;1.60;;
20784;SDS011;10552;45.818;12.896;2022-08-18T11:51:58;2.40;;;1.50;;
20784;SDS011;10552;45.818;12.896;2022-08-18T11:54:47;2.35;;;1.45;;
20784;SDS011;10552;45.818;12.896;2022-08-18T12:05:56;2.55;;;1.30;;
20784;SDS011;10552;45.818;12.896;2022-08-18T12:08:50;2.65;;;1.40;;
20784;SDS011;10552;45.818;12.896;2022-08-18T12:11:34;1.55;;;1.17;;
20784;SDS011;10552;45.818;12.896;2022-08-18T12:14:18;1.42;;;1.20;;
20784;SDS011;10552;45.818;12.896;2022-08-18T12:17:07;3.72;;;1.40;;
20784;SDS011;10552;45.818;12.896;2022-08-18T12:19:51;2.50;;;1.30;;
20784;SDS011;10552;45.818;12.896;2022-08-18T12:22:35;2.25;;;1.40;;
20784;SDS011;10552;45.818;12.896;2022-08-18T12:25:18;1.27;;;1.17;;
20784;SDS011;10552;45.818;12.896;2022-08-18T12:28:03;2.33;;;1.10;;
20784;SDS011;10552;45.818;12.896;2022-08-18T12:30:47;2.15;;;1.20;;
20784;SDS011;10552;45.818;12.896;2022-08-18T12:33:47;3.60;;;1.40;;
20784;SDS011;10552;45.818;12.896;2022-08-18T12:36:35;3.00;;;1.50;;
20784;SDS011;10552;45.818;12.896;2022-08-18T12:39:19;3.50;;;1.37;;
20784;SDS011;10552;45.818;12.896;2022-08-18T12:42:09;4.82;;;1.37;;
20784;SDS011;10552;45.818;12.896;2022-08-18T12:44:52;2.55;;;1.40;;
20784;SDS011;10552;45.818;12.896;2022-08-18T12:47:42;2.58;;;1.30;;
20784;SDS011;10552;45.818;12.896;2022-08-18T12:50:25;2.85;;;1.27;;
20784;SDS011;10552;45.818;12.896;2022-08-18T12:53:09;2.67;;;1.65;;
20784;SDS011;10552;45.818;12.896;2022-08-18T12:55:53;3.50;;;1.70;;
20784;SDS011;10552;45.818;12.896;2022-08-18T12:58:37;4.20;;;1.65;;
20784;SDS011;10552;45.818;12.896;2022-08-18T13:01:21;3.85;;;1.60;;
20784;SDS011;10552;45.818;12.896;2022-08-18T13:04:10;3.03;;;1.40;;
20784;SDS011;10552;45.818;12.896;2022-08-18T13:06:54;4.15;;;1.48;;
20784;SDS011;10552;45.818;12.896;2022-08-18T13:09:43;3.25;;;1.30;;
20784;SDS011;10552;45.818;12.896;2022-08-18T13:12:32;2.75;;;1.45;;
20784;SDS011;10552;45.818;12.896;2022-08-18T13:15:17;5.90;;;1.73;;
20784;SDS011;10552;45.818;12.896;2022-08-18T13:18:07;2.80;;;1.75;;
20784;SDS011;10552;45.818;12.896;2022-08-18T13:20:50;2.15;;;1.55;;
20784;SDS011;10552;45.818;12.896;2022-08-18T13:23:37;1.75;;;1.65;;
20784;SDS011;10552;45.818;12.896;2022-08-18T13:26:28;3.22;;;1.85;;
20784;SDS011;10552;45.818;12.896;2022-08-18T13:29:10;2.92;;;1.85;;
20784;SDS011;10552;45.818;12.896;2022-08-18T13:31:53;2.60;;;1.65;;
20784;SDS011;10552;45.818;12.896;2022-08-18T13:34:44;4.55;;;1.90;;
20784;SDS011;10552;45.818;12.896;2022-08-18T13:37:29;2.83;;;1.87;;
20784;SDS011;10552;45.818;12.896;2022-08-18T13:40:13;4.00;;;1.73;;
20784;SDS011;10552;45.818;12.896;2022-08-18T13:42:57;1.98;;;1.60;;
20784;SDS011;10552;45.818;12.896;2022-08-18T13:45:41;4.32;;;1.90;;
20784;SDS011;10552;45.818;12.896;2022-08-18T13:48:26;2.85;;;1.70;;
20784;SDS011;10552;45.818;12.896;2022-08-18T13:51:18;5.47;;;2.10;;
20784;SDS011;10552;45.818;12.896;2022-08-18T13:53:59;2.90;;;1.60;;
20784;SDS011;10552;45.818;12.896;2022-08-18T13:56:43;2.45;;;1.58;;
20784;SDS011;10552;45.818;12.896;2022-08-18T13:59:32;1.98;;;1.50;;
20784;SDS011;10552;45.818;12.896;2022-08-18T14:02:16;4.30;;;1.80;;
20784;SDS011;10552;45.818;12.896;2022-08-18T14:05:00;2.58;;;1.70;;
20784;SDS011;10552;45.818;12.896;2022-08-18T14:07:44;3.05;;;1.60;;
20784;SDS011;10552;45.818;12.896;2022-08-18T14:10:28;4.05;;;1.65;;
20784;SDS011;10552;45.818;12.896;2022-08-18T14:13:11;2.92;;;1.42;;
20784;SDS011;10552;45.818;12.896;2022-08-18T14:15:55;1.70;;;1.50;;
20784;SDS011;10552;45.818;12.896;2022-08-18T14:18:43;2.12;;;1.52;;
20784;SDS011;10552;45.818;12.896;2022-08-18T14:21:29;4.30;;;1.70;;
20784;SDS011;10552;45.818;12.896;2022-08-18T14:24:17;2.10;;;1.60;;
20784;SDS011;10552;45.818;12.896;2022-08-18T14:27:06;1.52;;;1.35;;
20784;SDS011;10552;45.818;12.896;2022-08-18T14:29:49;3.35;;;1.55;;
20784;SDS011;10552;45.818;12.896;2022-08-18T14:32:33;2.62;;;1.70;;
20784;SDS011;10552;45.818;12.896;2022-08-18T14:35:16;3.15;;;1.80;;
20784;SDS011;10552;45.818;12.896;2022-08-18T14:37:59;4.25;;;1.50;;
20784;SDS011;10552;45.818;12.896;2022-08-18T14:40:43;2.75;;;1.60;;
20784;SDS011;10552;45.818;12.896;2022-08-18T14:43:25;3.22;;;1.55;;
20784;SDS011;10552;45.818;12.896;2022-08-18T14:46:15;3.25;;;1.70;;
20784;SDS011;10552;45.818;12.896;2022-08-18T14:49:00;1.45;;;1.35;;
20784;SDS011;10552;45.818;12.896;2022-08-18T14:51:44;3.28;;;1.70;;
20784;SDS011;10552;45.818;12.896;2022-08-18T14:54:28;2.70;;;1.60;;
20784;SDS011;10552;45.818;12.896;2022-08-18T14:57:17;3.42;;;1.60;;
20784;SDS011;10552;45.818;12.896;2022-08-18T15:00:16;1.33;;;1.23;;
20784;SDS011;10552;45.818;12.896;2022-08-18T15:03:04;2.03;;;1.40;;
20784;SDS011;10552;45.818;12.896;2022-08-18T15:05:48;3.92;;;1.40;;
20784;SDS011;10552;45.818;12.896;2022-08-18T15:08:32;2.80;;;1.50;;
20784;SDS011;10552;45.818;12.896;2022-08-18T15:11:14;1.85;;;1.40;;
20784;SDS011;10552;45.818;12.896;2022-08-18T15:13:58;3.55;;;1.40;;
20784;SDS011;10552;45.818;12.896;2022-08-18T15:16:43;1.45;;;1.30;;
20784;SDS011;10552;45.818;12.896;2022-08-18T15:19:26;5.00;;;1.27;;
20784;SDS011;10552;45.818;12.896;2022-08-18T15:22:09;2.22;;;1.40;;
20784;SDS011;10552;45.818;12.896;2022-08-18T15:24:58;3.05;;;1.55;;
20784;SDS011;10552;45.818;12.896;2022-08-18T15:27:47;3.92;;;1.55;;
20784;SDS011;10552;45.818;12.896;2022-08-18T15:30:30;3.17;;;1.77;;
20784;SDS011;10552;45.818;12.896;2022-08-18T15:33:14;3.60;;;1.40;;
20784;SDS011;10552;45.818;12.896;2022-08-18T15:35:58;3.95;;;1.50;;
20784;SDS011;10552;45.818;12.896;2022-08-18T15:38:47;3.97;;;1.60;;
20784;SDS011;10552;45.818;12.896;2022-08-18T15:41:38;3.08;;;1.40;;
20784;SDS011;10552;45.818;12.896;2022-08-18T15:44:20;3.53;;;1.48;;
20784;SDS011;10552;45.818;12.896;2022-08-18T15:47:04;1.83;;;1.25;;
20784;SDS011;10552;45.818;12.896;2022-08-18T15:49:48;3.22;;;1.40;;
20784;SDS011;10552;45.818;12.896;2022-08-18T15:52:33;1.80;;;1.35;;
20784;SDS011;10552;45.818;12.896;2022-08-18T15:55:23;2.45;;;1.50;;
20784;SDS011;10552;45.818;12.896;2022-08-18T15:58:07;1.85;;;1.40;;
20784;SDS011;10552;45.818;12.896;2022-08-18T16:00:50;1.90;;;1.30;;
20784;SDS011;10552;45.818;12.896;2022-08-18T16:03:36;2.85;;;1.50;;
20784;SDS011;10552;45.818;12.896;2022-08-18T16:06:20;4.68;;;1.70;;
20784;SDS011;10552;45.818;12.896;2022-08-18T16:09:03;2.10;;;1.40;;
20784;SDS011;10552;45.818;12.896;2022-08-18T16:11:46;2.03;;;1.33;;
20784;SDS011;10552;45.818;12.896;2022-08-18T16:14:29;4.12;;;1.50;;
20784;SDS011;10552;45.818;12.896;2022-08-18T16:17:22;5.43;;;1.70;;
20784;SDS011;10552;45.818;12.896;2022-08-18T16:20:06;2.58;;;1.35;;
20784;SDS011;10552;45.818;12.896;2022-08-18T16:22:51;3.78;;;2.10;;
20784;SDS011;10552;45.818;12.896;2022-08-18T16:25:37;3.95;;;1.60;;
20784;SDS011;10552;45.818;12.896;2022-08-18T16:28:21;3.85;;;1.65;;
20784;SDS011;10552;45.818;12.896;2022-08-18T16:31:05;1.98;;;1.55;;
20784;SDS011;10552;45.818;12.896;2022-08-18T16:33:49;2.62;;;1.50;;
20784;SDS011;10552;45.818;12.896;2022-08-18T16:36:36;5.45;;;1.83;;
20784;SDS011;10552;45.818;12.896;2022-08-18T16:39:20;5.57;;;1.70;;
20784;SDS011;10552;45.818;12.896;2022-08-18T16:42:04;1.77;;;1.40;;
20784;SDS011;10552;45.818;12.896;2022-08-18T16:44:54;2.75;;;1.62;;
20784;SDS011;10552;45.818;12.896;2022-08-18T16:47:38;5.90;;;1.52;;
20784;SDS011;10552;45.818;12.896;2022-08-18T16:50:22;2.83;;;1.48;;
20784;SDS011;10552;45.818;12.896;2022-08-18T16:53:05;2.97;;;1.60;;
20784;SDS011;10552;45.818;12.896;2022-08-18T16:55:54;2.67;;;1.42;;
20784;SDS011;10552;45.818;12.896;2022-08-18T16:58:38;2.42;;;1.40;;
20784;SDS011;10552;45.818;12.896;2022-08-18T17:01:30;2.97;;;1.50;;
20784;SDS011;10552;45.818;12.896;2022-08-18T17:04:21;4.47;;;1.60;;
20784;SDS011;10552;45.818;12.896;2022-08-18T17:07:03;5.35;;;1.62;;
20784;SDS011;10552;45.818;12.896;2022-08-18T17:09:47;2.80;;;1.50;;
20784;SDS011;10552;45.818;12.896;2022-08-18T17:12:31;4.40;;;1.50;;
20784;SDS011;10552;45.818;12.896;2022-08-18T17:15:21;4.60;;;1.55;;
20784;SDS011;10552;45.818;12.896;2022-08-18T17:18:04;3.25;;;1.50;;
20784;SDS011;10552;45.818;12.896;2022-08-18T17:20:53;5.12;;;1.62;;
20784;SDS011;10552;45.818;12.896;2022-08-18T17:23:37;2.40;;;1.40;;
20784;SDS011;10552;45.818;12.896;2022-08-18T17:26:27;2.87;;;1.60;;
20784;SDS011;10552;45.818;12.896;2022-08-18T17:32:07;3.55;;;1.58;;
20784;SDS011;10552;45.818;12.896;2022-08-18T17:34:58;4.18;;;1.58;;
20784;SDS011;10552;45.818;12.896;2022-08-18T17:37:42;1.90;;;1.58;;
20784;SDS011;10552;45.818;12.896;2022-08-18T17:40:44;4.32;;;1.40;;
20784;SDS011;10552;45.818;12.896;2022-08-18T17:43:31;4.22;;;1.70;;
20784;SDS011;10552;45.818;12.896;2022-08-18T17:46:19;3.17;;;1.30;;
20784;SDS011;10552;45.818;12.896;2022-08-18T17:49:08;4.95;;;1.60;;
20784;SDS011;10552;45.818;12.896;2022-08-18T17:51:50;3.55;;;1.50;;